Pagrindinis puslapis
METAR-TAF:

METAR-TAF

Oro uostai :

Satu Marė, Rumunija

platuma: 47-48N, ilguma: 022-53E, Aukštis: 123 m

Dabartinis oras

Ataskaita buvo paskelbta 19 minutes, ne 16:00 UTC
Vėjas 7 kt iš Vakarų
Temperatūra 16°C
Drėgmė 39%
Slėgis 1007 hPa
Matomumas 10 km arba daugiau

METAR: LRSM 291600Z AUTO 26007KT 9999 NCD 16/02 Q1007

Laikas: 19:19 (16:19 UTC)

Prognozė

Ataskaita buvo paskelbta 26 valandos ir 19 minutes, ne 14:00 UTC
Prognozė galioja nuo 28 metu 15 UTC su 28 metu 24 UTC
Vėjas 4 kt nuo kintamojo kryptimis
Matomumas 10 km arba daugiau
nėra debesų žemiau 1500 m ir nėra kamuolinių lietaus debesų

TAF: LRSM 281400Z 2815/2824 VRB04KT CAVOK

Orai ataskaitas ir orų prognozės (METAR, TAF).

turimą stotys yra geltonos ir raudonos taškus žemėlapyje.

Perkelti pele per norėdami pamatyti stoties vardą.

Tada spustelėkite, norėdami matyti oro stebėjimo ir prognozės.

Norėdami pakeisti žemėlapį: spustelėkite ant žalios mygtukų su juodo kryžiaus žemyn,; žalią mygtuką su brūkšneliu, jei norite nutolinti; arba žalių rodyklių gretimoms žemėlapius.


METAR-TAF: